sensor_id;sensor_type;location;lat;lon;timestamp;P1;durP1;ratioP1;P2;durP2;ratioP2
41039;SDS011;48586;50.122;18.972;2022-10-16T00:02:25;29.45;;;16.98;;
41039;SDS011;48586;50.122;18.972;2022-10-16T00:05:27;32.88;;;16.40;;
41039;SDS011;48586;50.122;18.972;2022-10-16T00:08:28;32.53;;;15.60;;
41039;SDS011;48586;50.122;18.972;2022-10-16T00:11:33;28.58;;;15.05;;
41039;SDS011;48586;50.122;18.972;2022-10-16T00:14:36;29.48;;;15.45;;
41039;SDS011;48586;50.122;18.972;2022-10-16T00:17:41;27.20;;;14.77;;
41039;SDS011;48586;50.122;18.972;2022-10-16T00:20:43;27.33;;;14.57;;
41039;SDS011;48586;50.122;18.972;2022-10-16T00:23:45;26.73;;;14.10;;
41039;SDS011;48586;50.122;18.972;2022-10-16T00:26:49;25.40;;;14.05;;
41039;SDS011;48586;50.122;18.972;2022-10-16T00:29:51;24.50;;;14.73;;
41039;SDS011;48586;50.122;18.972;2022-10-16T00:32:54;28.20;;;14.98;;
41039;SDS011;48586;50.122;18.972;2022-10-16T00:35:57;26.70;;;14.27;;
41039;SDS011;48586;50.122;18.972;2022-10-16T00:39:00;26.85;;;14.73;;
41039;SDS011;48586;50.122;18.972;2022-10-16T00:42:03;24.13;;;14.35;;
41039;SDS011;48586;50.122;18.972;2022-10-16T00:45:05;24.42;;;13.82;;
41039;SDS011;48586;50.122;18.972;2022-10-16T00:48:10;25.63;;;15.35;;
41039;SDS011;48586;50.122;18.972;2022-10-16T00:51:16;25.98;;;14.63;;
41039;SDS011;48586;50.122;18.972;2022-10-16T00:54:23;27.98;;;14.63;;
41039;SDS011;48586;50.122;18.972;2022-10-16T00:57:28;21.13;;;13.88;;
41039;SDS011;48586;50.122;18.972;2022-10-16T01:00:30;26.77;;;14.23;;
41039;SDS011;48586;50.122;18.972;2022-10-16T01:03:34;22.80;;;14.45;;
41039;SDS011;48586;50.122;18.972;2022-10-16T01:06:39;28.95;;;14.48;;
41039;SDS011;48586;50.122;18.972;2022-10-16T01:09:51;25.88;;;13.82;;
41039;SDS011;48586;50.122;18.972;2022-10-16T01:13:07;26.55;;;14.35;;
41039;SDS011;48586;50.122;18.972;2022-10-16T01:16:12;24.67;;;14.25;;
41039;SDS011;48586;50.122;18.972;2022-10-16T01:19:19;22.52;;;13.52;;
41039;SDS011;48586;50.122;18.972;2022-10-16T01:22:33;25.15;;;13.88;;
41039;SDS011;48586;50.122;18.972;2022-10-16T01:25:47;26.58;;;13.05;;
41039;SDS011;48586;50.122;18.972;2022-10-16T01:29:03;22.30;;;13.43;;
41039;SDS011;48586;50.122;18.972;2022-10-16T01:32:11;24.65;;;13.05;;
41039;SDS011;48586;50.122;18.972;2022-10-16T01:35:19;19.67;;;12.45;;
41039;SDS011;48586;50.122;18.972;2022-10-16T01:38:25;23.23;;;12.55;;
41039;SDS011;48586;50.122;18.972;2022-10-16T01:41:34;19.08;;;12.35;;
41039;SDS011;48586;50.122;18.972;2022-10-16T01:44:44;20.67;;;12.07;;
41039;SDS011;48586;50.122;18.972;2022-10-16T01:47:49;22.30;;;13.50;;
41039;SDS011;48586;50.122;18.972;2022-10-16T01:50:59;22.38;;;12.57;;
41039;SDS011;48586;50.122;18.972;2022-10-16T01:54:05;22.02;;;12.70;;
41039;SDS011;48586;50.122;18.972;2022-10-16T01:57:10;21.08;;;12.88;;
41039;SDS011;48586;50.122;18.972;2022-10-16T02:00:16;19.17;;;12.40;;
41039;SDS011;48586;50.122;18.972;2022-10-16T02:03:21;21.17;;;12.43;;
41039;SDS011;48586;50.122;18.972;2022-10-16T02:06:23;24.13;;;13.18;;
41039;SDS011;48586;50.122;18.972;2022-10-16T02:09:26;23.77;;;12.48;;
41039;SDS011;48586;50.122;18.972;2022-10-16T02:12:30;18.38;;;12.13;;
41039;SDS011;48586;50.122;18.972;2022-10-16T02:15:35;21.02;;;13.02;;
41039;SDS011;48586;50.122;18.972;2022-10-16T02:18:38;21.95;;;12.88;;
41039;SDS011;48586;50.122;18.972;2022-10-16T02:21:42;20.75;;;13.15;;
41039;SDS011;48586;50.122;18.972;2022-10-16T02:24:50;28.63;;;15.13;;
41039;SDS011;48586;50.122;18.972;2022-10-16T02:27:56;21.33;;;13.32;;
41039;SDS011;48586;50.122;18.972;2022-10-16T02:31:04;20.35;;;12.80;;
41039;SDS011;48586;50.122;18.972;2022-10-16T02:34:11;24.50;;;12.38;;
41039;SDS011;48586;50.122;18.972;2022-10-16T02:37:15;24.90;;;12.63;;
41039;SDS011;48586;50.122;18.972;2022-10-16T02:40:19;21.73;;;11.60;;
41039;SDS011;48586;50.122;18.972;2022-10-16T02:43:22;20.83;;;11.73;;
41039;SDS011;48586;50.122;18.972;2022-10-16T02:46:27;18.30;;;12.20;;
41039;SDS011;48586;50.122;18.972;2022-10-16T02:49:30;22.50;;;12.63;;
41039;SDS011;48586;50.122;18.972;2022-10-16T02:52:32;20.08;;;12.77;;
41039;SDS011;48586;50.122;18.972;2022-10-16T02:55:35;24.55;;;14.18;;
41039;SDS011;48586;50.122;18.972;2022-10-16T02:58:37;27.25;;;16.02;;
41039;SDS011;48586;50.122;18.972;2022-10-16T03:01:40;25.10;;;15.93;;
41039;SDS011;48586;50.122;18.972;2022-10-16T03:04:42;25.00;;;16.05;;
41039;SDS011;48586;50.122;18.972;2022-10-16T03:07:44;24.33;;;14.30;;
41039;SDS011;48586;50.122;18.972;2022-10-16T03:10:46;21.38;;;13.38;;
41039;SDS011;48586;50.122;18.972;2022-10-16T03:13:48;20.92;;;14.35;;
41039;SDS011;48586;50.122;18.972;2022-10-16T03:16:53;24.63;;;13.73;;
41039;SDS011;48586;50.122;18.972;2022-10-16T03:19:55;23.08;;;13.32;;
41039;SDS011;48586;50.122;18.972;2022-10-16T03:22:57;19.63;;;12.57;;
41039;SDS011;48586;50.122;18.972;2022-10-16T03:25:59;19.48;;;12.38;;
41039;SDS011;48586;50.122;18.972;2022-10-16T03:29:01;17.30;;;11.93;;
41039;SDS011;48586;50.122;18.972;2022-10-16T03:32:05;19.42;;;12.55;;
41039;SDS011;48586;50.122;18.972;2022-10-16T03:35:07;20.88;;;12.10;;
41039;SDS011;48586;50.122;18.972;2022-10-16T03:38:10;20.98;;;11.45;;
41039;SDS011;48586;50.122;18.972;2022-10-16T03:41:12;20.45;;;11.85;;
41039;SDS011;48586;50.122;18.972;2022-10-16T03:44:14;16.42;;;11.50;;
41039;SDS011;48586;50.122;18.972;2022-10-16T03:47:17;17.27;;;10.95;;
41039;SDS011;48586;50.122;18.972;2022-10-16T03:50:21;18.23;;;11.85;;
41039;SDS011;48586;50.122;18.972;2022-10-16T03:53:23;19.52;;;11.13;;
41039;SDS011;48586;50.122;18.972;2022-10-16T03:56:25;18.05;;;11.77;;
41039;SDS011;48586;50.122;18.972;2022-10-16T03:59:27;19.17;;;12.20;;
41039;SDS011;48586;50.122;18.972;2022-10-16T04:02:30;24.17;;;13.65;;
41039;SDS011;48586;50.122;18.972;2022-10-16T04:05:32;25.15;;;14.45;;
41039;SDS011;48586;50.122;18.972;2022-10-16T04:08:34;21.42;;;13.73;;
41039;SDS011;48586;50.122;18.972;2022-10-16T04:11:36;23.38;;;13.77;;
41039;SDS011;48586;50.122;18.972;2022-10-16T04:14:39;21.80;;;13.95;;
41039;SDS011;48586;50.122;18.972;2022-10-16T04:17:42;24.02;;;13.30;;
41039;SDS011;48586;50.122;18.972;2022-10-16T04:20:44;19.30;;;13.40;;
41039;SDS011;48586;50.122;18.972;2022-10-16T04:23:46;19.70;;;13.25;;
41039;SDS011;48586;50.122;18.972;2022-10-16T04:26:47;17.25;;;11.68;;
41039;SDS011;48586;50.122;18.972;2022-10-16T04:29:49;20.92;;;12.50;;
41039;SDS011;48586;50.122;18.972;2022-10-16T04:32:52;20.08;;;12.77;;
41039;SDS011;48586;50.122;18.972;2022-10-16T04:35:57;20.88;;;12.40;;
41039;SDS011;48586;50.122;18.972;2022-10-16T04:38:59;16.73;;;12.02;;
41039;SDS011;48586;50.122;18.972;2022-10-16T04:42:01;18.45;;;12.25;;
41039;SDS011;48586;50.122;18.972;2022-10-16T04:45:03;15.73;;;11.43;;
41039;SDS011;48586;50.122;18.972;2022-10-16T04:48:07;16.35;;;11.45;;
41039;SDS011;48586;50.122;18.972;2022-10-16T04:51:09;22.02;;;12.85;;
41039;SDS011;48586;50.122;18.972;2022-10-16T04:54:11;20.85;;;11.98;;
41039;SDS011;48586;50.122;18.972;2022-10-16T04:57:13;18.90;;;12.27;;
41039;SDS011;48586;50.122;18.972;2022-10-16T05:00:15;28.55;;;16.05;;
41039;SDS011;48586;50.122;18.972;2022-10-16T05:03:18;24.45;;;16.02;;
41039;SDS011;48586;50.122;18.972;2022-10-16T05:06:20;33.40;;;17.77;;
41039;SDS011;48586;50.122;18.972;2022-10-16T05:09:22;34.63;;;18.35;;
41039;SDS011;48586;50.122;18.972;2022-10-16T05:12:23;38.85;;;21.95;;
41039;SDS011;48586;50.122;18.972;2022-10-16T05:15:26;39.15;;;20.90;;
41039;SDS011;48586;50.122;18.972;2022-10-16T05:18:30;38.53;;;21.13;;
41039;SDS011;48586;50.122;18.972;2022-10-16T05:21:32;29.85;;;18.85;;
41039;SDS011;48586;50.122;18.972;2022-10-16T05:24:34;31.13;;;18.70;;
41039;SDS011;48586;50.122;18.972;2022-10-16T05:27:35;30.60;;;18.85;;
41039;SDS011;48586;50.122;18.972;2022-10-16T05:30:37;33.92;;;19.35;;
41039;SDS011;48586;50.122;18.972;2022-10-16T05:33:41;37.28;;;22.23;;
41039;SDS011;48586;50.122;18.972;2022-10-16T05:36:44;48.70;;;25.67;;
41039;SDS011;48586;50.122;18.972;2022-10-16T05:39:46;39.92;;;23.50;;
41039;SDS011;48586;50.122;18.972;2022-10-16T05:42:48;39.28;;;22.80;;
41039;SDS011;48586;50.122;18.972;2022-10-16T05:45:53;41.33;;;23.20;;
41039;SDS011;48586;50.122;18.972;2022-10-16T05:48:57;38.88;;;22.35;;
41039;SDS011;48586;50.122;18.972;2022-10-16T05:51:59;43.13;;;23.08;;
41039;SDS011;48586;50.122;18.972;2022-10-16T05:55:01;37.63;;;20.80;;
41039;SDS011;48586;50.122;18.972;2022-10-16T05:58:02;37.80;;;22.05;;
41039;SDS011;48586;50.122;18.972;2022-10-16T06:01:05;49.00;;;22.75;;
41039;SDS011;48586;50.122;18.972;2022-10-16T06:04:09;38.65;;;23.25;;
41039;SDS011;48586;50.122;18.972;2022-10-16T06:07:11;46.42;;;26.23;;
41039;SDS011;48586;50.122;18.972;2022-10-16T06:10:13;45.95;;;26.98;;
41039;SDS011;48586;50.122;18.972;2022-10-16T06:13:15;47.33;;;25.23;;
41039;SDS011;48586;50.122;18.972;2022-10-16T06:16:18;46.80;;;26.30;;
41039;SDS011;48586;50.122;18.972;2022-10-16T06:19:21;49.35;;;26.05;;
41039;SDS011;48586;50.122;18.972;2022-10-16T06:22:23;45.10;;;25.50;;
41039;SDS011;48586;50.122;18.972;2022-10-16T06:25:26;46.40;;;25.80;;
41039;SDS011;48586;50.122;18.972;2022-10-16T06:28:28;45.05;;;27.10;;
41039;SDS011;48586;50.122;18.972;2022-10-16T06:31:29;49.35;;;29.10;;
41039;SDS011;48586;50.122;18.972;2022-10-16T06:34:35;46.60;;;28.63;;
41039;SDS011;48586;50.122;18.972;2022-10-16T06:37:37;44.97;;;27.33;;
41039;SDS011;48586;50.122;18.972;2022-10-16T06:40:39;41.78;;;26.23;;
41039;SDS011;48586;50.122;18.972;2022-10-16T06:43:41;44.08;;;25.00;;
41039;SDS011;48586;50.122;18.972;2022-10-16T06:46:44;36.17;;;23.13;;
41039;SDS011;48586;50.122;18.972;2022-10-16T06:49:48;34.60;;;18.63;;
41039;SDS011;48586;50.122;18.972;2022-10-16T06:52:50;28.98;;;17.15;;
41039;SDS011;48586;50.122;18.972;2022-10-16T06:55:52;36.33;;;18.35;;
41039;SDS011;48586;50.122;18.972;2022-10-16T06:58:54;30.17;;;16.10;;
41039;SDS011;48586;50.122;18.972;2022-10-16T07:01:56;25.27;;;14.60;;
41039;SDS011;48586;50.122;18.972;2022-10-16T07:04:59;30.33;;;15.02;;
41039;SDS011;48586;50.122;18.972;2022-10-16T07:08:01;22.27;;;13.50;;
41039;SDS011;48586;50.122;18.972;2022-10-16T07:11:05;21.10;;;12.82;;
41039;SDS011;48586;50.122;18.972;2022-10-16T07:14:12;22.48;;;11.60;;
41039;SDS011;48586;50.122;18.972;2022-10-16T07:17:16;19.67;;;10.90;;
41039;SDS011;48586;50.122;18.972;2022-10-16T07:20:20;20.25;;;11.15;;
41039;SDS011;48586;50.122;18.972;2022-10-16T07:23:22;17.98;;;10.75;;
41039;SDS011;48586;50.122;18.972;2022-10-16T07:26:25;17.42;;;10.63;;
41039;SDS011;48586;50.122;18.972;2022-10-16T07:29:28;19.92;;;11.10;;
41039;SDS011;48586;50.122;18.972;2022-10-16T07:32:30;18.08;;;11.50;;
41039;SDS011;48586;50.122;18.972;2022-10-16T07:35:34;17.88;;;10.50;;
41039;SDS011;48586;50.122;18.972;2022-10-16T07:38:36;14.00;;;10.07;;
41039;SDS011;48586;50.122;18.972;2022-10-16T07:41:38;18.73;;;10.25;;
41039;SDS011;48586;50.122;18.972;2022-10-16T07:44:40;17.52;;;10.93;;
41039;SDS011;48586;50.122;18.972;2022-10-16T07:47:42;18.90;;;10.65;;
41039;SDS011;48586;50.122;18.972;2022-10-16T07:50:45;18.52;;;10.77;;
41039;SDS011;48586;50.122;18.972;2022-10-16T07:53:47;15.52;;;10.00;;
41039;SDS011;48586;50.122;18.972;2022-10-16T07:56:49;18.10;;;9.60;;
41039;SDS011;48586;50.122;18.972;2022-10-16T07:59:51;16.83;;;9.63;;
41039;SDS011;48586;50.122;18.972;2022-10-16T08:02:54;17.63;;;10.00;;
41039;SDS011;48586;50.122;18.972;2022-10-16T08:05:57;17.73;;;9.15;;
41039;SDS011;48586;50.122;18.972;2022-10-16T08:09:00;16.45;;;9.88;;
41039;SDS011;48586;50.122;18.972;2022-10-16T08:12:02;17.67;;;9.95;;
41039;SDS011;48586;50.122;18.972;2022-10-16T08:15:06;19.02;;;9.00;;
41039;SDS011;48586;50.122;18.972;2022-10-16T08:18:09;18.20;;;8.32;;
41039;SDS011;48586;50.122;18.972;2022-10-16T08:21:13;15.45;;;9.05;;
41039;SDS011;48586;50.122;18.972;2022-10-16T08:27:18;17.63;;;9.23;;
41039;SDS011;48586;50.122;18.972;2022-10-16T08:30:21;16.65;;;8.70;;
41039;SDS011;48586;50.122;18.972;2022-10-16T08:33:24;14.60;;;8.95;;
41039;SDS011;48586;50.122;18.972;2022-10-16T08:36:28;16.70;;;7.90;;
41039;SDS011;48586;50.122;18.972;2022-10-16T08:39:30;16.20;;;8.23;;
41039;SDS011;48586;50.122;18.972;2022-10-16T08:42:39;16.50;;;8.88;;
41039;SDS011;48586;50.122;18.972;2022-10-16T08:45:51;13.63;;;8.93;;
41039;SDS011;48586;50.122;18.972;2022-10-16T08:49:06;15.35;;;8.55;;
41039;SDS011;48586;50.122;18.972;2022-10-16T08:52:15;13.65;;;8.82;;
41039;SDS011;48586;50.122;18.972;2022-10-16T08:55:21;15.73;;;8.80;;
41039;SDS011;48586;50.122;18.972;2022-10-16T08:58:34;13.57;;;8.30;;
41039;SDS011;48586;50.122;18.972;2022-10-16T09:01:37;12.05;;;8.25;;
41039;SDS011;48586;50.122;18.972;2022-10-16T09:04:51;13.80;;;7.90;;
41039;SDS011;48586;50.122;18.972;2022-10-16T09:08:08;15.48;;;9.32;;
41039;SDS011;48586;50.122;18.972;2022-10-16T09:11:18;14.95;;;8.27;;
41039;SDS011;48586;50.122;18.972;2022-10-16T09:14:32;20.67;;;8.40;;
41039;SDS011;48586;50.122;18.972;2022-10-16T09:17:44;13.23;;;7.38;;
41039;SDS011;48586;50.122;18.972;2022-10-16T09:20:56;11.10;;;7.47;;
41039;SDS011;48586;50.122;18.972;2022-10-16T09:24:08;15.77;;;8.00;;
41039;SDS011;48586;50.122;18.972;2022-10-16T09:27:13;22.98;;;15.20;;
41039;SDS011;48586;50.122;18.972;2022-10-16T09:30:17;12.40;;;7.50;;
41039;SDS011;48586;50.122;18.972;2022-10-16T09:33:21;11.65;;;7.30;;
41039;SDS011;48586;50.122;18.972;2022-10-16T09:36:27;11.20;;;7.25;;
41039;SDS011;48586;50.122;18.972;2022-10-16T09:39:43;12.45;;;7.22;;
41039;SDS011;48586;50.122;18.972;2022-10-16T09:42:46;11.83;;;7.20;;
41039;SDS011;48586;50.122;18.972;2022-10-16T09:45:58;20.20;;;7.40;;
41039;SDS011;48586;50.122;18.972;2022-10-16T09:49:03;13.00;;;7.15;;
41039;SDS011;48586;50.122;18.972;2022-10-16T09:52:11;11.73;;;7.38;;
41039;SDS011;48586;50.122;18.972;2022-10-16T09:55:17;15.60;;;7.82;;
41039;SDS011;48586;50.122;18.972;2022-10-16T09:58:21;14.50;;;6.90;;
41039;SDS011;48586;50.122;18.972;2022-10-16T10:01:24;16.07;;;6.83;;
41039;SDS011;48586;50.122;18.972;2022-10-16T10:04:37;9.88;;;6.75;;
41039;SDS011;48586;50.122;18.972;2022-10-16T10:07:42;15.63;;;7.07;;
41039;SDS011;48586;50.122;18.972;2022-10-16T10:10:48;16.75;;;8.30;;
41039;SDS011;48586;50.122;18.972;2022-10-16T10:13:50;13.38;;;6.90;;
41039;SDS011;48586;50.122;18.972;2022-10-16T10:16:53;9.90;;;6.70;;
41039;SDS011;48586;50.122;18.972;2022-10-16T10:20:14;15.63;;;7.15;;
41039;SDS011;48586;50.122;18.972;2022-10-16T10:23:24;12.82;;;7.28;;
41039;SDS011;48586;50.122;18.972;2022-10-16T10:26:29;12.65;;;7.60;;
41039;SDS011;48586;50.122;18.972;2022-10-16T10:29:37;12.15;;;7.53;;
41039;SDS011;48586;50.122;18.972;2022-10-16T10:32:56;10.23;;;6.97;;
41039;SDS011;48586;50.122;18.972;2022-10-16T10:36:17;12.73;;;7.20;;
41039;SDS011;48586;50.122;18.972;2022-10-16T10:39:29;9.63;;;6.75;;
41039;SDS011;48586;50.122;18.972;2022-10-16T10:42:38;13.30;;;7.72;;
41039;SDS011;48586;50.122;18.972;2022-10-16T10:45:46;10.10;;;6.68;;
41039;SDS011;48586;50.122;18.972;2022-10-16T10:48:54;14.13;;;6.67;;
41039;SDS011;48586;50.122;18.972;2022-10-16T10:52:12;15.05;;;6.63;;
41039;SDS011;48586;50.122;18.972;2022-10-16T10:55:31;11.65;;;7.05;;
41039;SDS011;48586;50.122;18.972;2022-10-16T10:58:53;10.55;;;6.88;;
41039;SDS011;48586;50.122;18.972;2022-10-16T11:02:10;13.65;;;7.15;;
41039;SDS011;48586;50.122;18.972;2022-10-16T11:05:26;13.30;;;7.38;;
41039;SDS011;48586;50.122;18.972;2022-10-16T11:08:35;11.02;;;6.63;;
41039;SDS011;48586;50.122;18.972;2022-10-16T11:11:40;17.52;;;7.63;;
41039;SDS011;48586;50.122;18.972;2022-10-16T11:14:48;9.65;;;7.13;;
41039;SDS011;48586;50.122;18.972;2022-10-16T11:17:59;13.88;;;7.10;;
41039;SDS011;48586;50.122;18.972;2022-10-16T11:21:07;13.60;;;6.93;;
41039;SDS011;48586;50.122;18.972;2022-10-16T11:24:14;13.60;;;7.28;;
41039;SDS011;48586;50.122;18.972;2022-10-16T11:27:34;12.75;;;6.78;;
41039;SDS011;48586;50.122;18.972;2022-10-16T11:30:43;12.40;;;7.40;;
41039;SDS011;48586;50.122;18.972;2022-10-16T11:33:49;12.65;;;6.78;;
41039;SDS011;48586;50.122;18.972;2022-10-16T11:36:59;13.02;;;6.85;;
41039;SDS011;48586;50.122;18.972;2022-10-16T11:40:11;12.30;;;7.00;;
41039;SDS011;48586;50.122;18.972;2022-10-16T11:43:22;13.98;;;7.30;;
41039;SDS011;48586;50.122;18.972;2022-10-16T11:46:29;11.82;;;7.35;;
41039;SDS011;48586;50.122;18.972;2022-10-16T11:49:34;13.52;;;7.03;;
41039;SDS011;48586;50.122;18.972;2022-10-16T11:55:43;8.95;;;6.82;;
41039;SDS011;48586;50.122;18.972;2022-10-16T11:58:50;12.35;;;7.57;;
41039;SDS011;48586;50.122;18.972;2022-10-16T12:01:59;13.93;;;7.25;;
41039;SDS011;48586;50.122;18.972;2022-10-16T12:05:19;12.80;;;7.60;;
41039;SDS011;48586;50.122;18.972;2022-10-16T12:08:26;12.40;;;7.45;;
41039;SDS011;48586;50.122;18.972;2022-10-16T12:11:33;14.32;;;7.35;;
41039;SDS011;48586;50.122;18.972;2022-10-16T12:14:37;11.43;;;7.38;;
41039;SDS011;48586;50.122;18.972;2022-10-16T12:17:42;15.05;;;7.45;;
41039;SDS011;48586;50.122;18.972;2022-10-16T12:20:43;15.35;;;7.25;;
41039;SDS011;48586;50.122;18.972;2022-10-16T12:27:01;10.77;;;7.55;;
41039;SDS011;48586;50.122;18.972;2022-10-16T12:30:05;12.07;;;7.20;;
41039;SDS011;48586;50.122;18.972;2022-10-16T12:33:17;9.70;;;7.50;;
41039;SDS011;48586;50.122;18.972;2022-10-16T12:36:26;9.35;;;7.03;;
41039;SDS011;48586;50.122;18.972;2022-10-16T12:39:30;13.80;;;7.72;;
41039;SDS011;48586;50.122;18.972;2022-10-16T12:42:33;11.48;;;6.97;;
41039;SDS011;48586;50.122;18.972;2022-10-16T12:45:35;12.18;;;7.88;;
41039;SDS011;48586;50.122;18.972;2022-10-16T12:48:40;10.95;;;7.50;;
41039;SDS011;48586;50.122;18.972;2022-10-16T12:51:43;139.75;;;55.72;;
41039;SDS011;48586;50.122;18.972;2022-10-16T12:54:45;18.80;;;8.60;;
41039;SDS011;48586;50.122;18.972;2022-10-16T12:57:55;14.90;;;7.63;;
41039;SDS011;48586;50.122;18.972;2022-10-16T13:01:04;14.45;;;7.35;;
41039;SDS011;48586;50.122;18.972;2022-10-16T13:07:56;14.17;;;7.57;;
41039;SDS011;48586;50.122;18.972;2022-10-16T13:11:08;14.98;;;8.02;;
41039;SDS011;48586;50.122;18.972;2022-10-16T13:14:22;14.38;;;7.78;;
41039;SDS011;48586;50.122;18.972;2022-10-16T13:17:40;15.13;;;7.38;;
41039;SDS011;48586;50.122;18.972;2022-10-16T13:20:55;14.68;;;7.70;;
41039;SDS011;48586;50.122;18.972;2022-10-16T13:24:10;11.32;;;7.55;;
41039;SDS011;48586;50.122;18.972;2022-10-16T13:27:22;13.52;;;7.63;;
41039;SDS011;48586;50.122;18.972;2022-10-16T13:33:40;12.15;;;8.30;;
41039;SDS011;48586;50.122;18.972;2022-10-16T13:36:50;13.88;;;8.05;;
41039;SDS011;48586;50.122;18.972;2022-10-16T13:40:01;11.43;;;8.45;;
41039;SDS011;48586;50.122;18.972;2022-10-16T13:43:09;13.73;;;8.73;;
41039;SDS011;48586;50.122;18.972;2022-10-16T13:46:12;13.35;;;8.32;;
41039;SDS011;48586;50.122;18.972;2022-10-16T13:49:16;15.23;;;8.93;;
41039;SDS011;48586;50.122;18.972;2022-10-16T13:52:21;14.70;;;8.50;;
41039;SDS011;48586;50.122;18.972;2022-10-16T13:55:23;13.52;;;8.60;;
41039;SDS011;48586;50.122;18.972;2022-10-16T13:58:25;11.13;;;8.68;;
41039;SDS011;48586;50.122;18.972;2022-10-16T14:01:28;12.75;;;8.95;;
41039;SDS011;48586;50.122;18.972;2022-10-16T14:04:32;12.77;;;8.75;;
41039;SDS011;48586;50.122;18.972;2022-10-16T14:07:36;17.40;;;8.90;;
41039;SDS011;48586;50.122;18.972;2022-10-16T14:10:39;12.77;;;8.65;;
41039;SDS011;48586;50.122;18.972;2022-10-16T14:13:43;12.95;;;8.63;;
41039;SDS011;48586;50.122;18.972;2022-10-16T14:16:47;16.55;;;9.30;;
41039;SDS011;48586;50.122;18.972;2022-10-16T14:19:50;15.38;;;8.98;;
41039;SDS011;48586;50.122;18.972;2022-10-16T14:23:00;14.82;;;8.95;;
41039;SDS011;48586;50.122;18.972;2022-10-16T14:26:15;13.00;;;8.85;;
41039;SDS011;48586;50.122;18.972;2022-10-16T14:29:18;14.00;;;9.68;;
41039;SDS011;48586;50.122;18.972;2022-10-16T14:32:22;12.38;;;9.38;;
41039;SDS011;48586;50.122;18.972;2022-10-16T14:35:26;20.88;;;9.40;;
41039;SDS011;48586;50.122;18.972;2022-10-16T14:38:32;18.52;;;10.13;;
41039;SDS011;48586;50.122;18.972;2022-10-16T14:41:40;12.25;;;9.15;;
41039;SDS011;48586;50.122;18.972;2022-10-16T14:44:45;13.20;;;9.30;;
41039;SDS011;48586;50.122;18.972;2022-10-16T14:47:50;14.00;;;9.38;;
41039;SDS011;48586;50.122;18.972;2022-10-16T14:50:54;16.05;;;9.48;;
41039;SDS011;48586;50.122;18.972;2022-10-16T14:53:58;14.85;;;10.05;;
41039;SDS011;48586;50.122;18.972;2022-10-16T14:56:59;15.50;;;9.93;;
41039;SDS011;48586;50.122;18.972;2022-10-16T15:00:02;12.93;;;9.10;;
41039;SDS011;48586;50.122;18.972;2022-10-16T15:03:04;15.02;;;10.15;;
41039;SDS011;48586;50.122;18.972;2022-10-16T15:06:08;16.90;;;10.07;;
41039;SDS011;48586;50.122;18.972;2022-10-16T15:09:13;15.45;;;9.52;;
41039;SDS011;48586;50.122;18.972;2022-10-16T15:12:15;18.65;;;10.68;;
41039;SDS011;48586;50.122;18.972;2022-10-16T15:15:21;17.08;;;10.63;;
41039;SDS011;48586;50.122;18.972;2022-10-16T15:18:28;16.90;;;10.38;;
41039;SDS011;48586;50.122;18.972;2022-10-16T15:21:30;15.80;;;10.07;;
41039;SDS011;48586;50.122;18.972;2022-10-16T15:24:34;13.93;;;9.75;;
41039;SDS011;48586;50.122;18.972;2022-10-16T15:27:36;13.55;;;10.02;;
41039;SDS011;48586;50.122;18.972;2022-10-16T15:30:40;16.20;;;9.83;;
41039;SDS011;48586;50.122;18.972;2022-10-16T15:33:42;16.75;;;9.48;;
41039;SDS011;48586;50.122;18.972;2022-10-16T15:36:47;17.23;;;10.23;;
41039;SDS011;48586;50.122;18.972;2022-10-16T15:39:51;19.40;;;10.45;;
41039;SDS011;48586;50.122;18.972;2022-10-16T15:42:52;18.73;;;13.10;;
41039;SDS011;48586;50.122;18.972;2022-10-16T15:45:58;18.83;;;13.13;;
41039;SDS011;48586;50.122;18.972;2022-10-16T15:49:01;22.52;;;12.18;;
41039;SDS011;48586;50.122;18.972;2022-10-16T15:52:04;17.90;;;12.52;;
41039;SDS011;48586;50.122;18.972;2022-10-16T15:55:07;18.00;;;11.85;;
41039;SDS011;48586;50.122;18.972;2022-10-16T15:58:10;22.10;;;12.68;;
41039;SDS011;48586;50.122;18.972;2022-10-16T16:01:12;26.55;;;17.15;;
41039;SDS011;48586;50.122;18.972;2022-10-16T16:04:14;23.77;;;14.23;;
41039;SDS011;48586;50.122;18.972;2022-10-16T16:07:17;23.45;;;14.57;;
41039;SDS011;48586;50.122;18.972;2022-10-16T16:10:20;27.00;;;15.75;;
41039;SDS011;48586;50.122;18.972;2022-10-16T16:13:22;22.60;;;15.82;;
41039;SDS011;48586;50.122;18.972;2022-10-16T16:16:24;24.58;;;16.52;;
41039;SDS011;48586;50.122;18.972;2022-10-16T16:19:25;23.75;;;15.63;;
41039;SDS011;48586;50.122;18.972;2022-10-16T16:22:27;24.02;;;14.85;;
41039;SDS011;48586;50.122;18.972;2022-10-16T16:25:30;23.08;;;16.48;;
41039;SDS011;48586;50.122;18.972;2022-10-16T16:28:32;24.95;;;15.50;;
41039;SDS011;48586;50.122;18.972;2022-10-16T16:31:34;31.10;;;16.35;;
41039;SDS011;48586;50.122;18.972;2022-10-16T16:34:36;40.50;;;26.60;;
41039;SDS011;48586;50.122;18.972;2022-10-16T16:37:39;33.38;;;21.65;;
41039;SDS011;48586;50.122;18.972;2022-10-16T16:40:42;35.08;;;22.20;;
41039;SDS011;48586;50.122;18.972;2022-10-16T16:43:44;31.23;;;20.42;;
41039;SDS011;48586;50.122;18.972;2022-10-16T16:46:47;33.55;;;21.92;;
41039;SDS011;48586;50.122;18.972;2022-10-16T16:49:49;40.50;;;26.25;;
41039;SDS011;48586;50.122;18.972;2022-10-16T16:52:51;44.83;;;27.33;;
41039;SDS011;48586;50.122;18.972;2022-10-16T16:55:54;50.80;;;30.73;;
41039;SDS011;48586;50.122;18.972;2022-10-16T16:58:56;44.38;;;28.60;;
41039;SDS011;48586;50.122;18.972;2022-10-16T17:01:59;48.70;;;29.33;;
41039;SDS011;48586;50.122;18.972;2022-10-16T17:05:01;38.20;;;25.10;;
41039;SDS011;48586;50.122;18.972;2022-10-16T17:08:05;48.83;;;29.75;;
41039;SDS011;48586;50.122;18.972;2022-10-16T17:11:12;45.03;;;28.48;;
41039;SDS011;48586;50.122;18.972;2022-10-16T17:14:16;53.72;;;34.80;;
41039;SDS011;48586;50.122;18.972;2022-10-16T17:17:18;57.65;;;34.47;;
41039;SDS011;48586;50.122;18.972;2022-10-16T17:20:20;42.15;;;25.27;;
41039;SDS011;48586;50.122;18.972;2022-10-16T17:23:22;38.95;;;24.90;;
41039;SDS011;48586;50.122;18.972;2022-10-16T17:26:26;36.60;;;23.88;;
41039;SDS011;48586;50.122;18.972;2022-10-16T17:29:28;41.28;;;25.73;;
41039;SDS011;48586;50.122;18.972;2022-10-16T17:32:30;45.60;;;29.70;;
41039;SDS011;48586;50.122;18.972;2022-10-16T17:35:35;54.53;;;33.58;;
41039;SDS011;48586;50.122;18.972;2022-10-16T17:38:39;47.47;;;30.13;;
41039;SDS011;48586;50.122;18.972;2022-10-16T17:41:43;55.05;;;33.80;;
41039;SDS011;48586;50.122;18.972;2022-10-16T17:44:46;50.92;;;32.00;;
41039;SDS011;48586;50.122;18.972;2022-10-16T17:47:47;47.60;;;27.40;;
41039;SDS011;48586;50.122;18.972;2022-10-16T17:50:49;39.13;;;23.23;;
41039;SDS011;48586;50.122;18.972;2022-10-16T17:53:52;35.88;;;21.70;;
41039;SDS011;48586;50.122;18.972;2022-10-16T17:56:56;38.13;;;21.55;;
41039;SDS011;48586;50.122;18.972;2022-10-16T17:59:58;27.98;;;19.73;;
41039;SDS011;48586;50.122;18.972;2022-10-16T18:03:06;34.75;;;22.83;;
41039;SDS011;48586;50.122;18.972;2022-10-16T18:06:08;34.33;;;20.33;;
41039;SDS011;48586;50.122;18.972;2022-10-16T18:09:13;35.15;;;20.38;;